createdAt,value
2019-01-13T00:04:48.162Z,10.33
2019-01-13T00:09:49.897Z,9.17
2019-01-13T00:14:51.591Z,13.00
2019-01-13T00:19:53.345Z,10.83
2019-01-13T00:24:55.123Z,12.37
2019-01-13T00:29:56.896Z,9.40
2019-01-13T00:34:58.671Z,7.17
2019-01-13T00:40:00.455Z,9.13
2019-01-13T00:45:02.334Z,9.07
2019-01-13T00:50:12.917Z,7.23
2019-01-13T00:55:15.409Z,8.37
2019-01-13T01:00:26.448Z,9.77
2019-01-13T01:05:23.984Z,10.03
2019-01-13T01:10:25.796Z,8.50
2019-01-13T01:15:33.600Z,9.53
2019-01-13T01:20:35.796Z,9.50
2019-01-13T01:25:37.952Z,6.87
2019-01-13T01:30:40.235Z,7.93
2019-01-13T01:35:42.019Z,6.23
2019-01-13T01:40:43.763Z,7.03
2019-01-13T01:45:45.565Z,6.77
2019-01-13T01:50:47.345Z,6.67
2019-01-13T01:55:49.423Z,5.87
2019-01-13T02:00:51.305Z,5.47
2019-01-13T02:05:53.105Z,6.57
2019-01-13T02:10:54.862Z,6.67
2019-01-13T02:15:56.635Z,5.60
2019-01-13T02:20:58.838Z,6.00
2019-01-13T02:26:00.597Z,6.97
2019-01-13T02:31:02.375Z,6.93
2019-01-13T02:36:04.046Z,6.40
2019-01-13T02:41:05.822Z,7.00
2019-01-13T02:46:07.596Z,7.37
2019-01-13T02:51:09.371Z,7.37
2019-01-13T02:56:11.479Z,6.37
2019-01-13T03:01:13.337Z,9.10
2019-01-13T03:06:15.522Z,9.50
2019-01-13T03:11:17.398Z,11.73
2019-01-13T03:16:19.083Z,10.10
2019-01-13T03:21:20.753Z,9.80
2019-01-13T03:26:22.524Z,7.93
2019-01-13T03:31:24.197Z,8.87
2019-01-13T03:36:25.978Z,10.23
2019-01-13T03:41:27.753Z,9.67
2019-01-13T03:46:29.372Z,11.53
2019-01-13T03:51:31.615Z,7.33
2019-01-13T03:56:33.292Z,7.50
2019-01-13T04:01:34.958Z,8.30
2019-01-13T04:06:36.843Z,8.30
2019-01-13T04:11:39.125Z,10.50
2019-01-13T04:16:40.900Z,10.63
2019-01-13T04:21:42.676Z,7.27
2019-01-13T04:26:44.460Z,8.50
2019-01-13T04:31:46.231Z,7.87
2019-01-13T04:36:47.906Z,7.00
2019-01-13T04:41:49.679Z,6.60
2019-01-13T04:46:51.362Z,6.87
2019-01-13T04:51:53.137Z,4.60
2019-01-13T04:56:54.810Z,5.40
2019-01-13T05:01:56.586Z,6.57
2019-01-13T05:07:00.818Z,3.93
2019-01-13T05:12:02.552Z,4.83
2019-01-13T05:17:04.166Z,3.40
2019-01-13T05:22:06.354Z,3.93
2019-01-13T05:27:08.029Z,3.30
2019-01-13T05:32:09.803Z,3.60
2019-01-13T05:37:11.584Z,2.83
2019-01-13T05:42:13.254Z,5.13
2019-01-13T05:47:15.762Z,4.97
2019-01-13T05:52:17.450Z,3.60
2019-01-13T05:57:19.648Z,5.40
2019-01-13T06:02:21.439Z,5.93
2019-01-13T06:07:23.334Z,4.47
2019-01-13T06:12:25.130Z,3.43
2019-01-13T06:17:26.917Z,4.70
2019-01-13T06:22:28.708Z,5.77
2019-01-13T06:27:30.498Z,7.00
2019-01-13T06:32:32.291Z,6.90
2019-01-13T06:37:34.484Z,9.47
2019-01-13T06:42:36.244Z,9.50
2019-01-13T06:47:38.034Z,6.10
2019-01-13T06:52:39.824Z,6.43
2019-01-13T06:57:42.224Z,5.00
2019-01-13T07:02:44.263Z,5.10
2019-01-13T07:07:46.943Z,4.20
2019-01-13T07:12:48.712Z,4.27
2019-01-13T07:17:50.812Z,5.90
2019-01-13T07:22:52.521Z,4.10
2019-01-13T07:27:54.183Z,4.00
2019-01-13T07:32:55.940Z,3.67
2019-01-13T07:37:57.635Z,3.23
2019-01-13T07:42:59.454Z,2.87
2019-01-13T07:48:01.211Z,3.20
2019-01-13T07:53:02.885Z,2.90
2019-01-13T07:58:05.136Z,3.00
2019-01-13T08:03:06.785Z,3.00
2019-01-13T08:08:08.708Z,2.60
2019-01-13T08:13:10.378Z,2.47
2019-01-13T08:18:12.156Z,2.47
2019-01-13T08:23:14.395Z,3.20
2019-01-13T08:28:16.495Z,2.50
2019-01-13T08:33:18.609Z,2.53
2019-01-13T08:38:20.357Z,2.00
2019-01-13T08:43:22.031Z,2.77
2019-01-13T08:48:24.321Z,2.13
2019-01-13T08:53:26.098Z,2.90
2019-01-13T08:58:29.759Z,2.73
2019-01-13T09:03:31.939Z,3.60
2019-01-13T09:08:37.724Z,4.53
2019-01-13T09:13:41.577Z,4.60
2019-01-13T09:18:43.444Z,3.90
2019-01-13T09:23:45.225Z,4.97
2019-01-13T09:28:47.000Z,4.73
2019-01-13T09:33:48.775Z,5.03
2019-01-13T09:38:50.449Z,6.40
2019-01-13T09:43:52.566Z,8.83
2019-01-13T09:48:54.313Z,7.30
2019-01-13T09:54:03.736Z,7.60
2019-01-13T09:59:06.471Z,8.53
2019-01-13T10:04:08.341Z,7.90
2019-01-13T10:09:10.761Z,6.00
2019-01-13T10:14:12.510Z,5.10
2019-01-13T10:19:14.289Z,6.33
2019-01-13T10:24:16.064Z,5.13
2019-01-13T10:29:18.560Z,7.00
2019-01-13T10:34:20.435Z,6.90
2019-01-13T10:39:22.112Z,6.30
2019-01-13T10:44:24.195Z,5.20
2019-01-13T10:49:26.390Z,6.70
2019-01-13T10:54:28.465Z,6.70
2019-01-13T10:59:30.245Z,7.47
2019-01-13T11:04:40.956Z,8.20
2019-01-13T11:09:43.418Z,10.40
2019-01-13T11:14:45.473Z,10.37
2019-01-13T11:19:50.710Z,8.67
2019-01-13T11:24:52.755Z,12.40
2019-01-13T11:29:54.544Z,12.40
2019-01-13T11:34:56.249Z,10.53
2019-01-13T11:39:57.987Z,9.73
2019-01-13T11:44:59.951Z,6.33
2019-01-13T11:50:01.827Z,7.87
2019-01-13T11:55:07.189Z,11.27
2019-01-13T12:00:17.876Z,9.10
2019-01-13T12:05:19.551Z,9.63
2019-01-13T12:10:21.441Z,11.03
2019-01-13T12:15:23.484Z,10.10
2019-01-13T12:20:25.565Z,11.57
2019-01-13T12:25:28.513Z,11.33
2019-01-13T12:30:30.595Z,11.63
2019-01-13T12:35:32.273Z,10.30
2019-01-13T12:40:34.044Z,10.13
2019-01-13T12:45:35.819Z,13.60
2019-01-13T12:50:37.798Z,12.50
2019-01-13T12:55:39.598Z,11.20
2019-01-13T13:00:54.092Z,14.00
2019-01-13T13:05:56.064Z,5.93
2019-01-13T13:10:57.840Z,4.33
2019-01-13T13:16:00.676Z,6.07
2019-01-13T13:21:03.660Z,1.80
2019-01-13T13:26:05.334Z,1.07
2019-01-13T13:31:07.098Z,2.47
2019-01-13T13:36:10.305Z,1.80
2019-01-13T13:41:12.439Z,2.50
2019-01-13T13:46:14.609Z,1.83
2019-01-13T13:51:16.750Z,1.83
2019-01-13T13:56:18.546Z,2.80
2019-01-13T14:01:20.403Z,3.13
2019-01-13T14:06:22.124Z,3.33
2019-01-13T14:11:23.925Z,3.37
2019-01-13T14:16:25.747Z,4.37
2019-01-13T14:21:27.511Z,8.60
2019-01-13T14:26:29.268Z,7.63
2019-01-13T14:31:31.044Z,9.80
2019-01-13T14:36:32.819Z,10.10
2019-01-13T14:41:34.697Z,11.93
2019-01-13T14:46:36.405Z,12.80
2019-01-13T14:51:38.249Z,10.33
2019-01-13T14:56:39.973Z,10.87
2019-01-13T15:01:44.768Z,12.40
2019-01-13T15:06:46.543Z,11.77
2019-01-13T15:11:48.322Z,13.37
2019-01-13T15:16:50.099Z,14.20
2019-01-13T15:21:51.881Z,10.90
2019-01-13T15:26:53.656Z,13.30
2019-01-13T15:31:55.398Z,12.80
2019-01-13T15:36:59.265Z,12.60
2019-01-13T15:42:01.165Z,14.60
2019-01-13T15:47:02.935Z,13.60
2019-01-13T15:52:04.761Z,14.33
2019-01-13T15:57:06.599Z,14.53
2019-01-13T16:02:08.477Z,14.50
2019-01-13T16:07:10.247Z,16.70
2019-01-13T16:12:12.035Z,14.23
2019-01-13T16:17:13.802Z,14.67
2019-01-13T16:22:15.588Z,13.97
2019-01-13T16:27:18.267Z,19.50
2019-01-13T16:32:21.837Z,12.83
2019-01-13T16:37:23.568Z,12.40
2019-01-13T16:42:27.034Z,14.00
2019-01-13T16:47:28.761Z,10.90
2019-01-13T16:52:30.662Z,11.83
2019-01-13T16:57:32.440Z,12.63
2019-01-13T17:02:34.711Z,13.80
2019-01-13T17:07:36.496Z,10.17
2019-01-13T17:12:38.376Z,11.70
2019-01-13T17:17:40.488Z,13.40
2019-01-13T17:22:42.538Z,11.20
2019-01-13T17:27:44.326Z,11.10
2019-01-13T17:32:46.408Z,12.13
2019-01-13T17:37:48.126Z,11.50
2019-01-13T17:42:50.270Z,10.60
2019-01-13T17:47:53.085Z,11.67
2019-01-13T17:52:55.039Z,16.70
2019-01-13T17:57:56.813Z,13.43
2019-01-13T18:03:01.459Z,12.03
2019-01-13T18:08:03.191Z,17.00
2019-01-13T18:13:04.948Z,13.00
2019-01-13T18:18:06.670Z,15.23
2019-01-13T18:23:10.752Z,14.83
2019-01-13T18:28:13.294Z,13.57
2019-01-13T18:33:15.178Z,14.40
2019-01-13T18:38:16.950Z,14.00
2019-01-13T18:43:20.912Z,16.70
2019-01-13T18:48:22.663Z,12.23
2019-01-13T18:53:24.539Z,14.53
2019-01-13T18:58:26.312Z,12.63
2019-01-13T19:03:28.251Z,13.30
2019-01-13T19:08:30.060Z,12.10
2019-01-13T19:14:01.436Z,16.50
2019-01-13T19:19:03.216Z,19.20
2019-01-13T19:24:05.070Z,16.10
2019-01-13T19:29:06.875Z,16.77
2019-01-13T19:34:08.646Z,15.83
2019-01-13T19:39:10.424Z,22.80
2019-01-13T19:44:12.198Z,19.00
2019-01-13T19:49:13.873Z,22.40
2019-01-13T19:54:15.750Z,18.77
2019-01-13T19:59:17.529Z,19.27
2019-01-13T20:04:19.408Z,18.97
2019-01-13T20:09:21.135Z,16.10
2019-01-13T20:14:23.065Z,16.97
2019-01-13T20:19:24.842Z,17.60
2019-01-13T20:24:26.633Z,17.20
2019-01-13T20:29:29.472Z,14.30
2019-01-13T20:34:31.272Z,21.37
2019-01-13T20:39:33.064Z,15.60
2019-01-13T20:44:34.800Z,19.93
2019-01-13T20:49:36.505Z,15.47
2019-01-13T20:54:38.228Z,15.23
2019-01-13T20:59:39.959Z,17.90
2019-01-13T21:04:41.685Z,14.73
2019-01-13T21:09:43.675Z,18.73
2019-01-13T21:14:45.592Z,17.43
2019-01-13T21:19:47.379Z,21.07
2019-01-13T21:24:49.131Z,15.67
2019-01-13T21:29:50.842Z,17.70
2019-01-13T21:34:52.645Z,15.87
2019-01-13T21:39:54.436Z,15.93
2019-01-13T21:44:56.243Z,22.80
2019-01-13T21:49:58.071Z,16.97
2019-01-13T21:54:59.836Z,20.80
2019-01-13T22:00:03.594Z,19.30
2019-01-13T22:05:07.852Z,21.40
2019-01-13T22:10:14.878Z,17.43
2019-01-13T22:15:18.615Z,16.30
2019-01-13T22:20:22.155Z,10.90
2019-01-13T22:25:23.948Z,12.07
2019-01-13T22:30:25.725Z,13.50
2019-01-13T22:35:27.515Z,14.63
2019-01-13T22:40:29.297Z,17.50
2019-01-13T22:45:32.710Z,18.03
2019-01-13T22:50:34.714Z,11.90
2019-01-13T22:55:36.607Z,12.07
2019-01-13T23:00:49.160Z,13.53
2019-01-13T23:05:55.634Z,12.93
2019-01-13T23:10:54.654Z,12.70
2019-01-13T23:15:56.475Z,12.27
2019-01-13T23:20:58.165Z,9.03
2019-01-13T23:25:59.915Z,11.77
2019-01-13T23:31:01.588Z,8.77
2019-01-13T23:36:03.561Z,10.00
2019-01-13T23:41:05.351Z,8.03
2019-01-13T23:46:07.161Z,8.30
2019-01-13T23:51:08.941Z,8.90
2019-01-13T23:56:10.823Z,7.17
